createdAt,value
2023-05-16T00:01:59.303Z,97099.59
2023-05-16T00:04:27.698Z,97094.72
2023-05-16T00:06:57.260Z,97090.00
2023-05-16T00:09:25.395Z,97102.94
2023-05-16T00:11:53.480Z,97101.25
2023-05-16T00:14:21.919Z,97097.63
2023-05-16T00:16:50.842Z,97086.16
2023-05-16T00:19:19.160Z,97075.66
2023-05-16T00:21:47.390Z,97069.59
2023-05-16T00:24:17.105Z,97056.19
2023-05-16T00:26:45.161Z,97068.38
2023-05-16T00:29:13.256Z,97062.22
2023-05-16T00:31:41.528Z,97069.22
2023-05-16T00:34:09.847Z,97052.44
2023-05-16T00:36:38.041Z,97048.81
2023-05-16T00:39:06.515Z,97041.22
2023-05-16T00:41:36.664Z,97048.81
2023-05-16T00:44:04.936Z,97026.03
2023-05-16T00:46:33.134Z,97021.78
2023-05-16T00:49:01.480Z,97017.06
2023-05-16T00:51:30.334Z,97003.53
2023-05-16T00:53:58.897Z,97008.50
2023-05-16T00:56:27.192Z,97020.81
2023-05-16T00:58:56.838Z,97012.34
2023-05-16T01:01:27.611Z,97021.88
2023-05-16T01:03:56.573Z,97025.28
2023-05-16T01:06:24.793Z,97024.31
2023-05-16T01:08:52.956Z,97019.22
2023-05-16T01:11:28.189Z,97015.72
2023-05-16T01:14:05.188Z,97012.69
2023-05-16T01:16:41.286Z,97023.81
2023-05-16T01:19:22.476Z,97029.13
2023-05-16T01:22:02.479Z,97019.81
2023-05-16T01:24:35.780Z,97030.31
2023-05-16T01:27:07.173Z,97035.63
2023-05-16T01:29:35.312Z,97036.38
2023-05-16T01:32:03.657Z,97030.81
2023-05-16T01:34:32.056Z,97020.44
2023-05-16T01:37:10.612Z,97009.56
2023-05-16T01:39:45.453Z,96993.25
2023-05-16T01:42:17.180Z,96991.72
2023-05-16T01:44:51.939Z,96983.88
2023-05-16T01:47:22.267Z,96974.94
2023-05-16T01:50:02.407Z,96975.56
2023-05-16T01:52:36.765Z,96979.28
2023-05-16T01:55:11.379Z,96959.47
2023-05-16T01:57:42.332Z,96966.97
2023-05-16T02:00:12.139Z,96970.47
2023-05-16T02:02:43.087Z,96956.25
2023-05-16T02:05:11.469Z,96940.19
2023-05-16T02:07:40.161Z,96932.34
2023-05-16T02:10:09.414Z,96930.28
2023-05-16T02:12:37.962Z,96947.31
2023-05-16T02:15:08.986Z,96948.28
2023-05-16T02:17:37.206Z,96944.66
2023-05-16T02:20:07.243Z,96933.19
2023-05-16T02:22:36.225Z,96936.53
2023-05-16T02:25:05.285Z,96914.72
2023-05-16T02:27:33.970Z,96901.44
2023-05-16T02:30:02.379Z,96921.22
2023-05-16T02:32:32.046Z,96926.66
2023-05-16T02:35:00.195Z,96934.72
2023-05-16T02:37:28.311Z,96935.56
2023-05-16T02:39:56.468Z,96932.59
2023-05-16T02:42:24.567Z,96926.53
2023-05-16T02:44:52.817Z,96918.34
2023-05-16T02:47:21.165Z,96921.97
2023-05-16T02:49:52.316Z,96920.25
2023-05-16T02:52:20.647Z,96916.88
2023-05-16T02:55:04.128Z,96915.19
2023-05-16T02:57:37.548Z,96912.63
2023-05-16T03:00:06.726Z,96926.06
2023-05-16T03:02:35.038Z,96925.81
2023-05-16T03:05:05.345Z,96917.38
2023-05-16T03:07:33.536Z,96924.38
2023-05-16T03:10:01.799Z,96918.56
2023-05-16T03:12:30.011Z,96917.84
2023-05-16T03:14:58.511Z,96925.09
2023-05-16T03:17:26.755Z,96935.09
2023-05-16T03:19:55.173Z,96949.72
2023-05-16T03:22:24.694Z,96945.72
2023-05-16T03:24:52.756Z,96950.56
2023-05-16T03:27:21.096Z,96939.09
2023-05-16T03:29:51.593Z,96952.97
2023-05-16T03:32:19.954Z,96963.25
2023-05-16T03:34:48.068Z,96955.88
2023-05-16T03:37:16.577Z,96943.91
2023-05-16T03:39:46.201Z,96948.53
2023-05-16T03:42:14.259Z,96948.25
2023-05-16T03:44:42.475Z,96947.28
2023-05-16T03:47:10.783Z,96941.75
2023-05-16T03:49:38.910Z,96924.13
2023-05-16T03:52:07.472Z,96929.06
2023-05-16T03:54:35.518Z,96936.06
2023-05-16T03:57:05.617Z,96938.84
2023-05-16T03:59:34.676Z,96935.22
2023-05-16T04:02:02.932Z,96935.09
2023-05-16T04:04:31.189Z,96942.97
2023-05-16T04:06:59.665Z,96938.25
2023-05-16T04:09:27.918Z,96940.31
2023-05-16T04:11:56.732Z,96951.16
2023-05-16T04:14:26.233Z,96932.81
2023-05-16T04:16:54.631Z,96941.03
2023-05-16T04:19:23.087Z,96954.94
2023-05-16T04:21:52.284Z,96940.56
2023-05-16T04:24:20.435Z,96955.16
2023-05-16T04:26:48.620Z,96956.97
2023-05-16T04:29:17.378Z,96962.91
2023-05-16T04:31:46.922Z,96971.94
2023-05-16T04:34:16.058Z,96966.38
2023-05-16T04:36:44.241Z,96964.69
2023-05-16T04:39:12.495Z,96958.41
2023-05-16T04:41:40.616Z,96956.59
2023-05-16T04:44:09.009Z,96978.69
2023-05-16T04:46:37.150Z,96970.97
2023-05-16T04:49:06.985Z,96973.38
2023-05-16T04:51:35.092Z,96973.38
2023-05-16T04:54:03.224Z,96980.13
2023-05-16T04:56:31.456Z,96976.03
2023-05-16T04:58:59.560Z,96973.38
2023-05-16T05:01:27.884Z,96979.66
2023-05-16T05:03:56.188Z,96980.38
2023-05-16T05:06:25.710Z,96974.22
2023-05-16T05:08:55.243Z,96976.28
2023-05-16T05:11:23.400Z,96974.59
2023-05-16T05:13:52.923Z,96977.25
2023-05-16T05:16:21.288Z,96969.53
2023-05-16T05:18:49.779Z,96965.19
2023-05-16T05:21:18.557Z,96960.56
2023-05-16T05:23:49.773Z,96958.28
2023-05-16T05:26:18.178Z,96954.78
2023-05-16T05:28:53.991Z,96953.56
2023-05-16T05:31:29.799Z,96947.06
2023-05-16T05:33:58.042Z,96940.78
2023-05-16T05:36:26.222Z,96939.09
2023-05-16T05:38:55.785Z,96937.41
2023-05-16T05:41:24.561Z,96937.16
2023-05-16T05:43:52.876Z,96945.38
2023-05-16T05:46:21.043Z,96948.75
2023-05-16T05:48:49.670Z,96955.50
2023-05-16T05:51:17.899Z,96945.50
2023-05-16T05:53:46.249Z,96944.16
2023-05-16T05:56:15.893Z,96945.63
2023-05-16T05:58:43.994Z,96947.53
2023-05-16T06:01:12.381Z,96942.00
2023-05-16T06:03:40.693Z,96932.81
2023-05-16T06:06:09.710Z,96938.13
2023-05-16T06:08:37.824Z,96949.72
2023-05-16T06:11:06.461Z,96948.59
2023-05-16T06:13:36.453Z,96964.78
2023-05-16T06:16:06.230Z,96961.78
2023-05-16T06:18:35.817Z,96978.56
2023-05-16T06:21:04.286Z,96988.31
2023-05-16T06:23:32.675Z,97003.06
2023-05-16T06:26:00.925Z,97012.47
2023-05-16T06:28:29.134Z,97039.31
2023-05-16T06:30:58.886Z,97058.59
2023-05-16T06:33:27.229Z,97064.84
2023-05-16T06:35:55.389Z,97076.78
2023-05-16T06:38:23.558Z,97071.09
2023-05-16T06:40:51.669Z,97068.81
2023-05-16T06:43:19.952Z,97063.50
2023-05-16T06:45:48.239Z,97073.59
2023-05-16T06:48:19.970Z,97073.47
2023-05-16T06:50:49.507Z,97084.50
2023-05-16T06:53:17.716Z,97082.56
2023-05-16T06:55:46.103Z,97079.50
2023-05-16T06:58:14.381Z,97072.75
2023-05-16T07:00:44.210Z,97063.56
2023-05-16T07:03:12.518Z,97037.97
2023-05-16T07:05:42.555Z,97051.31
2023-05-16T07:08:12.414Z,97048.88
2023-05-16T07:10:40.983Z,97044.97
2023-05-16T07:13:09.229Z,97046.94
2023-05-16T07:15:37.601Z,97039.63
2023-05-16T07:18:06.043Z,97026.44
2023-05-16T07:20:34.581Z,97022.38
2023-05-16T07:23:04.240Z,97025.03
2023-05-16T07:25:33.686Z,97028.03
2023-05-16T07:28:04.585Z,97012.84
2023-05-16T07:30:33.120Z,97014.28
2023-05-16T07:33:01.458Z,97012.84
2023-05-16T07:35:29.968Z,97004.78
2023-05-16T07:37:58.494Z,97005.72
2023-05-16T07:40:29.644Z,97016.34
2023-05-16T07:43:10.034Z,97028.78
2023-05-16T07:45:38.476Z,97033.03
2023-05-16T07:48:07.140Z,97015.13
2023-05-16T07:50:35.679Z,97004.53
2023-05-16T07:53:03.951Z,97001.53
2023-05-16T07:55:33.687Z,97003.81
2023-05-16T07:58:02.150Z,97001.41
2023-05-16T08:00:30.981Z,97007.91
2023-05-16T08:02:59.445Z,96982.56
2023-05-16T08:05:28.389Z,96977.25
2023-05-16T08:07:56.955Z,96982.81
2023-05-16T08:10:25.220Z,96988.34
2023-05-16T08:12:54.985Z,96971.69
2023-05-16T08:15:23.350Z,96980.16
2023-05-16T08:17:51.938Z,96973.53
2023-05-16T08:20:20.460Z,96982.81
2023-05-16T08:22:48.831Z,96970.84
2023-05-16T08:25:17.130Z,96970.00
2023-05-16T08:27:46.745Z,96978.47
2023-05-16T08:30:16.892Z,96988.34
2023-05-16T08:32:45.347Z,96996.59
2023-05-16T08:35:14.021Z,97001.16
2023-05-16T08:37:42.447Z,97014.22
2023-05-16T08:40:12.203Z,97020.75
2023-05-16T08:42:42.372Z,97026.66
2023-05-16T08:45:12.684Z,97022.66
2023-05-16T08:47:43.861Z,97016.63
2023-05-16T08:50:13.305Z,97006.72
2023-05-16T08:52:44.754Z,96999.84
2023-05-16T08:55:14.870Z,96984.16
2023-05-16T08:57:43.228Z,96971.91
2023-05-16T09:00:13.384Z,96958.84
2023-05-16T09:02:44.723Z,96988.72
2023-05-16T09:05:14.478Z,96992.13
2023-05-16T09:07:43.210Z,96999.19
2023-05-16T09:10:12.305Z,96997.97
2023-05-16T09:12:41.245Z,96988.94
2023-05-16T09:15:10.995Z,96976.56
2023-05-16T09:17:42.548Z,96996.34
2023-05-16T09:20:14.607Z,96998.09
2023-05-16T09:22:53.291Z,96976.19
2023-05-16T09:25:30.343Z,96989.47
2023-05-16T09:28:01.597Z,96993.44
2023-05-16T09:30:32.247Z,96992.41
2023-05-16T09:33:01.329Z,97015.25
2023-05-16T09:35:44.303Z,97013.38
2023-05-16T09:38:19.595Z,97014.81
2023-05-16T09:40:47.917Z,97019.19
2023-05-16T09:43:18.665Z,97005.50
2023-05-16T09:45:49.141Z,97008.31
2023-05-16T09:48:18.773Z,96999.53
2023-05-16T09:50:54.432Z,97016.63
2023-05-16T09:53:30.358Z,97040.03
2023-05-16T09:56:03.555Z,97032.31
2023-05-16T09:58:32.705Z,97016.34
2023-05-16T10:01:01.112Z,97009.59
2023-05-16T10:03:30.485Z,97004.13
2023-05-16T10:06:02.065Z,97004.00
2023-05-16T10:08:36.264Z,96996.28
2023-05-16T10:11:06.579Z,96978.19
2023-05-16T10:13:36.957Z,96981.81
2023-05-16T10:16:09.137Z,96983.72
2023-05-16T10:18:38.239Z,96983.50
2023-05-16T10:21:11.979Z,96978.06
2023-05-16T10:23:43.950Z,96980.41
2023-05-16T10:26:14.910Z,96963.84
2023-05-16T10:28:44.128Z,96951.00
2023-05-16T10:31:13.191Z,96969.84
2023-05-16T10:33:41.932Z,96980.03
2023-05-16T10:36:13.227Z,96945.84
2023-05-16T10:38:42.584Z,96950.31
2023-05-16T10:41:11.510Z,96955.94
2023-05-16T10:43:40.534Z,96932.50
2023-05-16T10:46:12.705Z,96926.63
2023-05-16T10:48:42.437Z,96921.31
2023-05-16T10:51:36.772Z,96928.50
2023-05-16T10:54:10.715Z,96931.38
2023-05-16T10:56:39.250Z,96918.38
2023-05-16T10:59:25.296Z,96913.91
2023-05-16T11:01:57.842Z,96896.25
2023-05-16T11:04:51.365Z,96898.59
2023-05-16T11:07:23.349Z,96877.50
2023-05-16T11:10:05.508Z,96893.91
2023-05-16T11:12:45.340Z,96891.78
2023-05-16T11:15:25.966Z,96879.75
2023-05-16T11:18:07.079Z,96878.94
2023-05-16T11:20:36.801Z,96883.09
2023-05-16T11:23:27.214Z,96906.66
2023-05-16T11:25:57.462Z,96899.84
2023-05-16T11:28:27.420Z,96906.53
2023-05-16T11:30:57.622Z,96890.47
2023-05-16T11:33:27.881Z,96887.25
2023-05-16T11:36:15.317Z,96892.41
2023-05-16T11:38:46.072Z,96892.81
2023-05-16T11:41:16.758Z,96895.16
2023-05-16T11:43:46.324Z,96881.78
2023-05-16T11:46:15.144Z,96870.13
2023-05-16T11:48:45.529Z,96875.75
2023-05-16T11:51:14.960Z,96871.09
2023-05-16T11:53:43.204Z,96874.19
2023-05-16T11:56:13.231Z,96847.91
2023-05-16T11:58:42.307Z,96852.16
2023-05-16T12:01:11.414Z,96858.03
2023-05-16T12:03:39.993Z,96853.03
2023-05-16T12:06:08.670Z,96854.97
2023-05-16T12:08:37.151Z,96867.63
2023-05-16T12:11:05.451Z,96853.44
2023-05-16T12:13:35.557Z,96847.75
2023-05-16T12:16:03.941Z,96849.19
2023-05-16T12:18:32.262Z,96848.31
2023-05-16T12:21:00.667Z,96836.31
2023-05-16T12:23:29.510Z,96830.13
2023-05-16T12:26:01.077Z,96827.03
2023-05-16T12:28:35.837Z,96832.06
2023-05-16T12:31:04.286Z,96808.84
2023-05-16T12:33:32.795Z,96823.13
2023-05-16T12:36:01.962Z,96819.53
2023-05-16T12:38:30.666Z,96820.97
2023-05-16T12:41:00.231Z,96809.47
2023-05-16T12:43:28.753Z,96815.63
2023-05-16T12:45:58.958Z,96801.41
2023-05-16T12:48:35.408Z,96812.13
2023-05-16T12:51:15.741Z,96809.47
2023-05-16T12:53:54.405Z,96818.03
2023-05-16T12:56:26.495Z,96808.38
2023-05-16T12:58:54.745Z,96803.38
2023-05-16T13:01:24.298Z,96821.00
2023-05-16T13:03:52.700Z,96804.53
2023-05-16T13:06:21.604Z,96783.56
2023-05-16T13:08:50.144Z,96792.88
2023-05-16T13:11:19.230Z,96780.59
2023-05-16T13:13:47.512Z,96781.03
2023-05-16T13:16:15.781Z,96787.63
2023-05-16T13:18:45.606Z,96783.34
2023-05-16T13:21:14.160Z,96788.59
2023-05-16T13:23:42.568Z,96787.81
2023-05-16T13:26:10.897Z,96783.47
2023-05-16T13:28:39.119Z,96777.81
2023-05-16T13:31:07.894Z,96768.47
2023-05-16T13:33:36.439Z,96766.16
2023-05-16T13:36:09.003Z,96768.31
2023-05-16T13:38:38.029Z,96753.38
2023-05-16T13:41:06.235Z,96759.13
2023-05-16T13:43:34.555Z,96756.94
2023-05-16T13:46:02.789Z,96762.56
2023-05-16T13:48:31.053Z,96753.50
2023-05-16T13:50:59.334Z,96745.41
2023-05-16T13:53:29.024Z,96741.53
2023-05-16T13:55:57.240Z,96745.63
2023-05-16T13:58:25.637Z,96729.19
2023-05-16T14:00:54.490Z,96724.16
2023-05-16T14:03:23.397Z,96723.44
2023-05-16T14:05:52.024Z,96719.69
2023-05-16T14:08:20.248Z,96722.53
2023-05-16T14:10:49.952Z,96699.56
2023-05-16T14:13:18.142Z,96696.09
2023-05-16T14:15:46.569Z,96700.22
2023-05-16T14:18:14.884Z,96703.41
2023-05-16T14:20:43.151Z,96704.25
2023-05-16T14:23:11.401Z,96718.84
2023-05-16T14:25:39.663Z,96710.31
2023-05-16T14:28:09.342Z,96713.97
2023-05-16T14:30:37.688Z,96711.50
2023-05-16T14:33:06.313Z,96716.75
2023-05-16T14:35:35.066Z,96723.97
2023-05-16T14:38:03.311Z,96714.22
2023-05-16T14:40:31.809Z,96714.63
2023-05-16T14:42:59.916Z,96730.81
2023-05-16T14:45:30.399Z,96751.84
2023-05-16T14:47:58.828Z,96745.63
2023-05-16T14:50:27.177Z,96756.00
2023-05-16T14:52:55.841Z,96754.69
2023-05-16T14:55:24.098Z,96755.31
2023-05-16T14:57:57.205Z,96784.66
2023-05-16T15:00:27.720Z,96788.31
2023-05-16T15:02:57.697Z,96782.63
2023-05-16T15:05:26.574Z,96781.31
2023-05-16T15:07:55.159Z,96780.34
2023-05-16T15:10:23.520Z,96795.19
2023-05-16T15:12:51.798Z,96772.50
2023-05-16T15:15:20.243Z,96787.41
2023-05-16T15:17:48.684Z,96780.00
2023-05-16T15:20:19.462Z,96773.97
2023-05-16T15:22:49.722Z,96775.69
2023-05-16T15:25:18.248Z,96779.50
2023-05-16T15:27:46.621Z,96766.41
2023-05-16T15:30:15.619Z,96777.84
2023-05-16T15:32:43.990Z,96779.41
2023-05-16T15:35:12.365Z,96781.47
2023-05-16T15:37:42.394Z,96772.06
2023-05-16T15:40:12.039Z,96778.56
2023-05-16T15:42:42.333Z,96777.84
2023-05-16T15:45:11.947Z,96779.28
2023-05-16T15:47:40.308Z,96775.41
2023-05-16T15:50:08.985Z,96790.28
2023-05-16T15:52:37.405Z,96780.50
2023-05-16T15:55:07.992Z,96789.19
2023-05-16T15:57:36.345Z,96785.31
2023-05-16T16:00:05.874Z,96772.06
2023-05-16T16:02:40.366Z,96763.38
2023-05-16T16:05:09.783Z,96782.91
2023-05-16T16:07:38.006Z,96782.19
2023-05-16T16:10:09.242Z,96782.66
2023-05-16T16:12:37.616Z,96786.03
2023-05-16T16:15:07.680Z,96788.56
2023-05-16T16:17:36.266Z,96785.66
2023-05-16T16:20:04.971Z,96795.56
2023-05-16T16:22:33.233Z,96788.47
2023-05-16T16:25:01.506Z,96784.22
2023-05-16T16:27:31.415Z,96779.16
2023-05-16T16:30:00.023Z,96765.53
2023-05-16T16:32:28.361Z,96753.69
2023-05-16T16:34:56.796Z,96759.63
2023-05-16T16:37:25.217Z,96767.09
2023-05-16T16:39:53.513Z,96766.97
2023-05-16T16:42:21.676Z,96758.75
2023-05-16T16:44:51.640Z,96765.75
2023-05-16T16:47:20.496Z,96774.66
2023-05-16T16:49:48.652Z,96769.59
2023-05-16T16:52:16.859Z,96771.53
2023-05-16T16:54:45.327Z,96775.03
2023-05-16T16:57:13.592Z,96779.47
2023-05-16T16:59:41.929Z,96782.28
2023-05-16T17:02:11.871Z,96792.03
2023-05-16T17:04:40.609Z,96795.00
2023-05-16T17:07:09.086Z,96793.22
2023-05-16T17:09:39.519Z,96791.03
2023-05-16T17:12:14.952Z,96781.72
2023-05-16T17:14:43.993Z,96792.34
2023-05-16T17:17:13.798Z,96799.41
2023-05-16T17:19:42.187Z,96806.91
2023-05-16T17:22:10.745Z,96817.06
2023-05-16T17:24:38.924Z,96807.09
2023-05-16T17:27:07.845Z,96810.38
2023-05-16T17:29:37.478Z,96803.81
2023-05-16T17:32:06.630Z,96809.09
2023-05-16T17:34:36.666Z,96818.59
2023-05-16T17:37:06.663Z,96812.94
2023-05-16T17:39:35.984Z,96819.94
2023-05-16T17:42:07.122Z,96819.94
2023-05-16T17:44:35.905Z,96829.47
2023-05-16T17:47:04.374Z,96841.88
2023-05-16T17:49:33.016Z,96826.69
2023-05-16T17:52:03.136Z,96840.44
2023-05-16T17:54:32.429Z,96861.66
2023-05-16T17:57:01.765Z,96867.91
2023-05-16T17:59:30.536Z,96870.28
2023-05-16T18:01:59.409Z,96873.44
2023-05-16T18:04:28.445Z,96866.47
2023-05-16T18:06:57.288Z,96854.16
2023-05-16T18:09:28.081Z,96830.78
2023-05-16T18:11:56.962Z,96832.44
2023-05-16T18:14:26.044Z,96833.28
2023-05-16T18:16:54.842Z,96827.13
2023-05-16T18:19:24.193Z,96812.63
2023-05-16T18:21:53.506Z,96823.16
2023-05-16T18:24:24.325Z,96817.25
2023-05-16T18:26:54.217Z,96815.75
2023-05-16T18:29:23.652Z,96824.13
2023-05-16T18:31:51.865Z,96822.84
2023-05-16T18:34:20.135Z,96813.38
2023-05-16T18:36:49.188Z,96822.56
2023-05-16T18:39:19.423Z,96818.28
2023-05-16T18:41:48.547Z,96833.50
2023-05-16T18:44:19.000Z,96849.56
2023-05-16T18:46:48.990Z,96852.22
2023-05-16T18:49:17.680Z,96848.09
2023-05-16T18:51:46.312Z,96855.41
2023-05-16T18:54:14.964Z,96857.41
2023-05-16T18:56:43.834Z,96855.31
2023-05-16T18:59:12.829Z,96861.66
2023-05-16T19:01:42.530Z,96851.94
2023-05-16T19:04:11.537Z,96857.06
2023-05-16T19:06:39.762Z,96847.75
2023-05-16T19:09:09.377Z,96845.94
2023-05-16T19:11:38.065Z,96848.19
2023-05-16T19:14:08.290Z,96855.41
2023-05-16T19:16:37.279Z,96853.09
2023-05-16T19:19:08.142Z,96858.09
2023-05-16T19:21:36.638Z,96844.22
2023-05-16T19:24:04.966Z,96842.53
2023-05-16T19:26:33.855Z,96839.97
2023-05-16T19:29:04.120Z,96847.41
2023-05-16T19:31:33.923Z,96832.19
2023-05-16T19:34:02.318Z,96834.28
2023-05-16T19:36:32.063Z,96838.94
2023-05-16T19:39:00.379Z,96846.56
2023-05-16T19:41:29.278Z,96848.56
2023-05-16T19:43:57.744Z,96846.66
2023-05-16T19:46:25.992Z,96833.00
2023-05-16T19:48:54.488Z,96825.28
2023-05-16T19:51:33.471Z,96834.28
2023-05-16T19:54:10.237Z,96835.97
2023-05-16T19:56:38.693Z,96834.31
2023-05-16T19:59:07.299Z,96850.38
2023-05-16T20:01:35.894Z,96835.88
2023-05-16T20:04:05.595Z,96848.16
2023-05-16T20:06:34.068Z,96843.63
2023-05-16T20:09:02.450Z,96842.13
2023-05-16T20:11:32.140Z,96846.91
2023-05-16T20:14:00.787Z,96844.91
2023-05-16T20:16:29.321Z,96855.78
2023-05-16T20:18:58.254Z,96850.09
2023-05-16T20:21:26.711Z,96844.69
2023-05-16T20:23:54.900Z,96856.84
2023-05-16T20:26:23.165Z,96855.91
2023-05-16T20:28:55.048Z,96844.50
2023-05-16T20:31:23.501Z,96860.78
2023-05-16T20:33:52.404Z,96861.63
2023-05-16T20:36:20.811Z,96862.28
2023-05-16T20:38:49.258Z,96839.84
2023-05-16T20:41:17.664Z,96859.50
2023-05-16T20:43:46.961Z,96851.03
2023-05-16T20:46:16.953Z,96843.22
2023-05-16T20:48:45.509Z,96848.63
2023-05-16T20:51:13.769Z,96843.22
2023-05-16T20:53:42.221Z,96833.06
2023-05-16T20:56:10.527Z,96835.50
2023-05-16T20:58:42.230Z,96851.59
2023-05-16T21:01:12.170Z,96848.19
2023-05-16T21:03:42.001Z,96846.00
2023-05-16T21:06:10.477Z,96847.66
2023-05-16T21:08:38.953Z,96845.88
2023-05-16T21:11:07.325Z,96862.69
2023-05-16T21:13:35.566Z,96860.16
2023-05-16T21:16:07.908Z,96864.72
2023-05-16T21:18:36.276Z,96864.28
2023-05-16T21:21:06.642Z,96874.13
2023-05-16T21:23:35.232Z,96863.31
2023-05-16T21:26:03.612Z,96872.84
2023-05-16T21:28:36.864Z,96874.97
2023-05-16T21:31:08.264Z,96885.31
2023-05-16T21:33:36.552Z,96887.00
2023-05-16T21:36:07.074Z,96897.84
2023-05-16T21:38:35.526Z,96901.19
2023-05-16T21:41:03.836Z,96900.56
2023-05-16T21:43:32.104Z,96898.84
2023-05-16T21:46:00.595Z,96912.41
2023-05-16T21:48:29.022Z,96916.22
2023-05-16T21:50:57.453Z,96890.50
2023-05-16T21:53:27.344Z,96902.91
2023-05-16T21:55:55.676Z,96916.22
2023-05-16T21:58:25.382Z,96900.75
2023-05-16T22:00:53.985Z,96916.09
2023-05-16T22:03:23.079Z,96917.50
2023-05-16T22:05:51.716Z,96912.59
2023-05-16T22:08:19.993Z,96917.69
2023-05-16T22:10:49.890Z,96908.59
2023-05-16T22:13:20.089Z,96898.84
2023-05-16T22:16:03.338Z,96909.69
2023-05-16T22:18:33.443Z,96921.72
2023-05-16T22:21:02.374Z,96924.28
2023-05-16T22:23:31.091Z,96935.72
2023-05-16T22:26:00.808Z,96920.97
2023-05-16T22:28:29.203Z,96914.63
2023-05-16T22:30:57.474Z,96939.72
2023-05-16T22:33:25.811Z,96922.13
2023-05-16T22:35:54.198Z,96916.75
2023-05-16T22:38:22.513Z,96923.44
2023-05-16T22:40:51.221Z,96910.19
2023-05-16T22:43:21.261Z,96910.94
2023-05-16T22:45:51.638Z,96901.81
2023-05-16T22:48:20.102Z,96908.19
2023-05-16T22:50:48.348Z,96905.41
2023-05-16T22:53:16.594Z,96903.31
2023-05-16T22:55:44.827Z,96912.59
2023-05-16T22:58:13.099Z,96910.06
2023-05-16T23:00:42.839Z,96911.75
2023-05-16T23:03:11.224Z,96914.28
2023-05-16T23:05:39.633Z,96911.94
2023-05-16T23:08:07.868Z,96915.09
2023-05-16T23:10:36.749Z,96918.19
2023-05-16T23:13:05.035Z,96917.25
2023-05-16T23:15:33.177Z,96904.31
2023-05-16T23:18:02.859Z,96910.69
2023-05-16T23:20:31.160Z,96913.78
2023-05-16T23:22:59.708Z,96910.16
2023-05-16T23:25:28.185Z,96908.59
2023-05-16T23:27:58.037Z,96913.91
2023-05-16T23:30:26.278Z,96907.75
2023-05-16T23:32:54.791Z,96895.25
2023-05-16T23:35:24.511Z,96901.25
2023-05-16T23:37:52.889Z,96906.56
2023-05-16T23:40:21.131Z,96908.59
2023-05-16T23:42:49.328Z,96894.81
2023-05-16T23:45:17.790Z,96901.81
2023-05-16T23:47:46.175Z,96920.03
2023-05-16T23:50:15.848Z,96908.19
2023-05-16T23:52:45.673Z,96915.56
2023-05-16T23:55:14.117Z,96903.09
2023-05-16T23:57:42.388Z,96900.34
